This is the latest recevied weather packets stored in our database for station/object OE-11361. If no packets are shown the sender has not sent any weather packets the latest 10 day(s).
| Time | Temp. | Humidity | Pressure | Rain* | Wind** | Luminosity | Snow |
|---|---|---|---|---|---|---|---|
| 1787770504 | 18.89° C | 85% | 1016.2 hPa | 0 mm | - | 0 W/m² | - |
| 1787769677 | 18.89° C | 85% | 1016.2 hPa | 0 mm | - | 0 W/m² | - |
| 1787769304 | 19.44° C | 85% | 1016 hPa | 0 mm | - | 0 W/m² | - |
| 1787768704 | 19.44° C | 83% | 1015.8 hPa | 0 mm | - | 0 W/m² | - |
| 1787767878 | 20° C | 81% | 1015.7 hPa | 0 mm | - | 7 W/m² | - |
| 1787767504 | 20.56° C | 81% | 1015.6 hPa | 0 mm | - | 14 W/m² | - |
| 1787766904 | 20.56° C | 78% | 1015.5 hPa | 0 mm | - | 21 W/m² | - |
| 1787766077 | 21.11° C | 77% | 1015.3 hPa | 0 mm | - | 34 W/m² | - |
| 1787765704 | 21.67° C | 76% | 1015.2 hPa | 0 mm | - | 41 W/m² | - |
| 1787765103 | 21.67° C | 73% | 1015.1 hPa | 0 mm | - | 62 W/m² | - |
| 1787764277 | 22.78° C | 69% | 1015 hPa | 0 mm | - | 110 W/m² | - |
| 1787763904 | 22.78° C | 69% | 1014.9 hPa | 0 mm | - | 96 W/m² | - |
| 1787763304 | 22.78° C | 68% | 1014.8 hPa | 0 mm | - | 131 W/m² | - |
| 1787762477 | 23.33° C | 65% | 1014.8 hPa | 0 mm | - | 159 W/m² | - |
| 1787762104 | 23.89° C | 62% | 1014.7 hPa | 0 mm | - | 193 W/m² | - |
| 1787761504 | 23.89° C | 61% | 1014.7 hPa | 0 mm | - | 248 W/m² | - |
| 1787760677 | 24.44° C | 58% | 1014.6 hPa | 0 mm | - | 303 W/m² | - |
| 1787760304 | 24.44° C | 62% | 1014.6 hPa | 0 mm | - | 317 W/m² | - |
| 1787759704 | 24.44° C | 61% | 1014.8 hPa | 0 mm | - | 255 W/m² | - |
| 1787758877 | 25.56° C | 60% | 1014.5 hPa | 0 mm | - | 358 W/m² | - |
| 1787758503 | 25.56° C | 61% | 1014.5 hPa | 0 mm | - | 358 W/m² | - |
| 1787757904 | 25.56° C | 56% | 1014.6 hPa | 0 mm | - | 358 W/m² | - |
| 1787757077 | 25.56° C | 56% | 1014.8 hPa | 0 mm | - | 434 W/m² | - |
| 1787756704 | 25° C | 63% | 1014.8 hPa | 0 mm | - | 351 W/m² | - |
| 1787756104 | 25° C | 67% | 1014.9 hPa | 0 mm | - | 317 W/m² | - |
* Rain latest hour (hover to see other rain measurements)
** Current wind speed in m/s (hover to see current wind gust speed)